createdAt,value
2022-09-05T00:00:47.899Z,1020.76
2022-09-05T00:01:47.901Z,1020.78
2022-09-05T00:02:49.127Z,1020.78
2022-09-05T00:03:48.012Z,1020.77
2022-09-05T00:04:47.907Z,1020.74
2022-09-05T00:06:00.149Z,1020.76
2022-09-05T00:06:47.910Z,1020.74
2022-09-05T00:08:00.019Z,1020.76
2022-09-05T00:08:47.907Z,1020.76
2022-09-05T00:09:47.909Z,1020.75
2022-09-05T00:11:39.441Z,1020.77
2022-09-05T00:11:47.912Z,1020.77
2022-09-05T00:12:47.910Z,1020.75
2022-09-05T00:13:47.912Z,1020.73
2022-09-05T00:15:15.345Z,1020.75
2022-09-05T00:15:47.950Z,1020.72
2022-09-05T00:16:47.917Z,1020.72
2022-09-05T00:19:34.097Z,1020.72
2022-09-05T00:22:27.404Z,1020.77
2022-09-05T00:24:19.253Z,1020.78
2022-09-05T00:24:21.445Z,1020.71
2022-09-05T00:24:29.483Z,1020.76
2022-09-05T00:24:35.669Z,1020.78
2022-09-05T00:24:42.327Z,1020.75
2022-09-05T00:25:00.794Z,1020.74
2022-09-05T00:25:47.917Z,1020.74
2022-09-05T00:26:50.457Z,1020.73
2022-09-05T00:27:47.921Z,1020.73
2022-09-05T00:28:47.922Z,1020.78
2022-09-05T00:31:50.547Z,1020.73
2022-09-05T00:31:51.998Z,1020.72
2022-09-05T00:31:54.379Z,1020.73
2022-09-05T00:32:47.978Z,1020.74
2022-09-05T00:33:47.925Z,1020.71
2022-09-05T00:34:48.457Z,1020.77
2022-09-05T00:35:47.929Z,1020.77
2022-09-05T00:36:47.934Z,1020.76
2022-09-05T00:37:47.927Z,1020.76
2022-09-05T00:38:47.933Z,1020.79
2022-09-05T00:39:55.294Z,1020.80
2022-09-05T00:40:47.932Z,1020.79
2022-09-05T00:41:47.933Z,1020.77
2022-09-05T00:42:47.932Z,1020.82
2022-09-05T00:43:47.931Z,1020.77
2022-09-05T00:44:47.940Z,1020.76
2022-09-05T00:45:47.934Z,1020.75
2022-09-05T00:46:47.962Z,1020.78
2022-09-05T00:47:48.396Z,1020.81
2022-09-05T00:48:47.939Z,1020.77
2022-09-05T00:49:47.938Z,1020.77
2022-09-05T00:50:47.943Z,1020.75
2022-09-05T00:51:47.940Z,1020.77
2022-09-05T00:52:51.735Z,1020.77
2022-09-05T00:53:47.942Z,1020.80
2022-09-05T00:54:47.943Z,1020.80
2022-09-05T00:55:47.948Z,1020.81
2022-09-05T00:56:47.946Z,1020.80
2022-09-05T00:57:47.946Z,1020.79
2022-09-05T00:58:47.946Z,1020.82
2022-09-05T00:59:58.592Z,1020.81
2022-09-05T01:00:47.946Z,1020.83
2022-09-05T01:01:48.116Z,1020.83
2022-09-05T01:02:51.788Z,1020.83
2022-09-05T01:03:47.947Z,1020.87
2022-09-05T01:04:47.949Z,1020.87
2022-09-05T01:05:47.948Z,1020.87
2022-09-05T01:06:47.951Z,1020.89
2022-09-05T01:07:47.951Z,1020.93
2022-09-05T01:08:47.956Z,1020.92
2022-09-05T01:09:47.957Z,1020.94
2022-09-05T01:10:47.951Z,1020.94
2022-09-05T01:11:47.951Z,1020.90
2022-09-05T01:12:48.553Z,1020.92
2022-09-05T01:13:47.955Z,1020.93
2022-09-05T01:14:47.957Z,1020.94
2022-09-05T01:15:48.006Z,1020.93
2022-09-05T01:16:47.961Z,1020.94
2022-09-05T01:17:48.424Z,1020.91
2022-09-05T01:18:47.959Z,1020.95
2022-09-05T01:19:47.961Z,1020.94
2022-09-05T01:20:47.956Z,1020.95
2022-09-05T01:21:48.217Z,1020.93
2022-09-05T01:22:47.965Z,1020.93
2022-09-05T01:23:47.961Z,1020.93
2022-09-05T01:24:47.962Z,1020.90
2022-09-05T01:25:55.015Z,1020.90
2022-09-05T01:26:47.972Z,1020.91
2022-09-05T01:29:01.321Z,1020.93
2022-09-05T01:29:16.557Z,1020.94
2022-09-05T01:29:47.964Z,1020.93
2022-09-05T01:30:48.041Z,1020.95
2022-09-05T01:31:47.969Z,1020.95
2022-09-05T01:32:47.964Z,1020.96
2022-09-05T01:33:47.967Z,1020.94
2022-09-05T01:34:47.969Z,1020.95
2022-09-05T01:36:03.818Z,1021.00
2022-09-05T01:36:47.971Z,1020.97
2022-09-05T01:37:47.990Z,1020.98
2022-09-05T01:39:11.194Z,1021.00
2022-09-05T01:40:15.178Z,1021.02
2022-09-05T01:40:53.641Z,1020.98
2022-09-05T01:41:47.973Z,1020.97
2022-09-05T01:42:47.974Z,1021.01
2022-09-05T01:43:47.978Z,1020.99
2022-09-05T01:44:47.970Z,1021.02
2022-09-05T01:45:47.979Z,1021.01
2022-09-05T01:46:47.975Z,1021.02
2022-09-05T01:47:47.977Z,1021.02
2022-09-05T01:48:48.047Z,1020.99
2022-09-05T01:49:47.979Z,1021.03
2022-09-05T01:50:47.981Z,1021.05
2022-09-05T01:51:47.978Z,1021.04
2022-09-05T01:52:58.963Z,1021.01
2022-09-05T01:53:47.985Z,1021.04
2022-09-05T01:54:47.984Z,1021.05
2022-09-05T01:56:04.612Z,1021.02
2022-09-05T01:56:47.985Z,1021.00
2022-09-05T01:57:47.987Z,1021.00
2022-09-05T01:58:47.984Z,1021.00
2022-09-05T01:59:47.982Z,1021.01
2022-09-05T02:00:47.985Z,1021.03
2022-09-05T02:01:48.105Z,1021.04
2022-09-05T02:02:50.508Z,1021.00
2022-09-05T02:03:47.986Z,1020.97
2022-09-05T02:04:47.988Z,1020.98
2022-09-05T02:05:49.684Z,1020.97
2022-09-05T02:06:47.987Z,1020.99
2022-09-05T02:07:47.986Z,1020.96
2022-09-05T02:08:47.986Z,1020.98
2022-09-05T02:09:47.989Z,1021.00
2022-09-05T02:10:47.991Z,1020.96
2022-09-05T02:11:47.998Z,1021.01
2022-09-05T02:12:56.699Z,1020.94
2022-09-05T02:13:47.993Z,1020.98
2022-09-05T02:14:47.993Z,1021.01
2022-09-05T02:15:59.077Z,1020.97
2022-09-05T02:16:47.993Z,1021.05
2022-09-05T02:17:51.007Z,1020.99
2022-09-05T02:18:47.993Z,1021.00
2022-09-05T02:19:47.996Z,1021.02
2022-09-05T02:20:47.994Z,1021.02
2022-09-05T02:21:56.838Z,1020.99
2022-09-05T02:22:47.998Z,1020.99
2022-09-05T02:23:48.206Z,1021.02
2022-09-05T02:24:47.997Z,1021.05
2022-09-05T02:26:01.660Z,1021.03
2022-09-05T02:26:47.997Z,1021.05
2022-09-05T02:28:04.807Z,1021.05
2022-09-05T02:28:47.999Z,1021.01
2022-09-05T02:29:48.001Z,1021.04
2022-09-05T02:31:11.562Z,1021.04
2022-09-05T02:31:48.053Z,1021.07
2022-09-05T02:32:48.004Z,1021.05
2022-09-05T02:33:48.001Z,1021.07
2022-09-05T02:34:48.006Z,1021.08
2022-09-05T02:35:48.007Z,1021.05
2022-09-05T02:36:48.000Z,1021.06
2022-09-05T02:40:07.813Z,1021.06
2022-09-05T02:41:57.210Z,1021.07
2022-09-05T02:45:09.015Z,1021.07
2022-09-05T02:45:12.207Z,1021.03
2022-09-05T02:45:13.054Z,1021.08
2022-09-05T02:45:16.851Z,1021.07
2022-09-05T02:45:18.370Z,1021.07
2022-09-05T02:45:19.183Z,1021.09
2022-09-05T02:45:48.139Z,1021.08
2022-09-05T02:46:48.153Z,1021.09
2022-09-05T02:47:48.009Z,1021.04
2022-09-05T02:48:48.012Z,1021.08
2022-09-05T02:51:01.233Z,1021.00
2022-09-05T02:53:59.202Z,1021.09
2022-09-05T02:57:24.565Z,1021.04
2022-09-05T02:57:25.901Z,1021.08
2022-09-05T02:57:33.266Z,1021.09
2022-09-05T02:57:41.590Z,1021.09
2022-09-05T02:57:42.315Z,1021.11
2022-09-05T02:58:04.931Z,1021.06
2022-09-05T02:58:05.752Z,1021.08
2022-09-05T02:59:08.586Z,1021.07
2022-09-05T02:59:48.022Z,1021.09
2022-09-05T03:00:48.028Z,1021.07
2022-09-05T03:01:48.089Z,1021.06
2022-09-05T03:02:48.047Z,1021.06
2022-09-05T03:03:48.025Z,1021.07
2022-09-05T03:04:48.014Z,1021.05
2022-09-05T03:05:48.017Z,1021.06
2022-09-05T03:06:48.018Z,1021.00
2022-09-05T03:07:48.018Z,1021.11
2022-09-05T03:08:48.019Z,1021.05
2022-09-05T03:09:48.019Z,1021.07
2022-09-05T03:10:54.094Z,1021.04
2022-09-05T03:11:48.022Z,1021.00
2022-09-05T03:12:48.024Z,1021.03
2022-09-05T03:13:54.034Z,1021.02
2022-09-05T03:14:48.024Z,1021.02
2022-09-05T03:15:48.022Z,1021.06
2022-09-05T03:16:48.067Z,1021.00
2022-09-05T03:17:48.026Z,1021.07
2022-09-05T03:18:48.023Z,1021.00
2022-09-05T03:19:48.030Z,1020.99
2022-09-05T03:20:48.034Z,1021.02
2022-09-05T03:21:48.034Z,1021.00
2022-09-05T03:22:48.024Z,1020.98
2022-09-05T03:23:48.029Z,1021.00
2022-09-05T03:24:55.640Z,1021.02
2022-09-05T03:25:48.031Z,1020.95
2022-09-05T03:26:48.030Z,1020.97
2022-09-05T03:27:48.026Z,1020.98
2022-09-05T03:28:48.027Z,1020.95
2022-09-05T03:29:48.036Z,1020.99
2022-09-05T03:30:48.108Z,1020.97
2022-09-05T03:31:48.031Z,1020.97
2022-09-05T03:32:48.027Z,1021.00
2022-09-05T03:33:48.034Z,1020.97
2022-09-05T03:34:48.032Z,1020.98
2022-09-05T03:35:48.036Z,1020.97
2022-09-05T03:36:48.028Z,1020.98
2022-09-05T03:37:48.038Z,1021.03
2022-09-05T03:38:48.033Z,1021.02
2022-09-05T03:39:48.065Z,1021.01
2022-09-05T03:40:48.035Z,1021.04
2022-09-05T03:41:48.033Z,1021.01
2022-09-05T03:43:23.508Z,1021.02
2022-09-05T03:44:23.506Z,1021.02
2022-09-05T03:45:36.737Z,1021.03
2022-09-05T03:46:23.553Z,1021.01
2022-09-05T03:47:23.508Z,1021.02
2022-09-05T03:48:28.345Z,1021.00
2022-09-05T03:51:41.817Z,1021.02
2022-09-05T03:54:17.125Z,1021.02
2022-09-05T03:57:06.538Z,1021.04
2022-09-05T03:57:08.731Z,1021.01
2022-09-05T03:57:13.118Z,1021.05
2022-09-05T03:57:15.205Z,1021.06
2022-09-05T03:57:19.055Z,1021.03
2022-09-05T03:57:24.260Z,1021.04
2022-09-05T03:57:41.901Z,1021.00
2022-09-05T03:58:41.936Z,1021.00
2022-09-05T03:59:23.527Z,1020.97
2022-09-05T04:00:23.511Z,1020.99
2022-09-05T04:02:10.240Z,1020.95
2022-09-05T04:08:05.765Z,1020.98
2022-09-05T04:08:09.333Z,1020.96
2022-09-05T04:08:11.269Z,1020.99
2022-09-05T04:08:14.989Z,1020.99
2022-09-05T04:08:19.556Z,1020.99
2022-09-05T04:08:24.161Z,1021.00
2022-09-05T04:08:38.944Z,1021.00
2022-09-05T04:09:49.011Z,1020.96
2022-09-05T04:10:23.623Z,1020.96
2022-09-05T04:11:23.513Z,1020.96
2022-09-05T04:12:23.523Z,1020.96
2022-09-05T04:13:23.840Z,1020.95
2022-09-05T04:14:23.519Z,1020.97
2022-09-05T04:15:23.518Z,1021.01
2022-09-05T04:16:23.620Z,1020.99
2022-09-05T04:17:23.519Z,1021.01
2022-09-05T04:18:33.390Z,1021.01
2022-09-05T04:19:23.521Z,1021.05
2022-09-05T04:20:23.519Z,1021.00
2022-09-05T04:21:23.523Z,1021.02
2022-09-05T04:22:23.523Z,1021.07
2022-09-05T04:23:23.626Z,1021.01
2022-09-05T04:24:23.527Z,1021.04
2022-09-05T04:25:23.525Z,1021.10
2022-09-05T04:26:23.523Z,1021.06
2022-09-05T04:27:27.814Z,1021.08
2022-09-05T04:28:23.561Z,1021.10
2022-09-05T04:29:23.528Z,1021.09
2022-09-05T04:30:38.530Z,1021.13
2022-09-05T04:31:23.561Z,1021.08
2022-09-05T04:32:23.567Z,1021.11
2022-09-05T04:33:36.186Z,1021.11
2022-09-05T04:34:23.534Z,1021.09
2022-09-05T04:35:23.524Z,1021.10
2022-09-05T04:36:23.531Z,1021.15
2022-09-05T04:37:23.526Z,1021.16
2022-09-05T04:38:23.531Z,1021.15
2022-09-05T04:39:23.572Z,1021.17
2022-09-05T04:40:23.530Z,1021.14
2022-09-05T04:41:39.178Z,1021.18
2022-09-05T04:42:23.529Z,1021.16
2022-09-05T04:43:23.528Z,1021.18
2022-09-05T04:44:23.533Z,1021.19
2022-09-05T04:45:24.296Z,1021.21
2022-09-05T04:46:23.573Z,1021.21
2022-09-05T04:47:23.529Z,1021.21
2022-09-05T04:48:23.662Z,1021.23
2022-09-05T04:49:24.465Z,1021.23
2022-09-05T04:50:24.084Z,1021.25
2022-09-05T04:51:23.536Z,1021.26
2022-09-05T04:52:30.914Z,1021.23
2022-09-05T04:53:23.537Z,1021.26
2022-09-05T04:54:23.532Z,1021.29
2022-09-05T04:55:23.530Z,1021.26
2022-09-05T04:56:23.533Z,1021.26
2022-09-05T04:57:23.530Z,1021.28
2022-09-05T04:58:24.178Z,1021.29
2022-09-05T05:01:00.395Z,1021.30
2022-09-05T05:06:00.371Z,1021.32
2022-09-05T05:06:00.811Z,1021.34
2022-09-05T05:06:05.739Z,1021.29
2022-09-05T05:06:08.226Z,1021.32
2022-09-05T05:06:10.661Z,1021.34
2022-09-05T05:06:10.666Z,1021.37
2022-09-05T05:06:46.002Z,1021.33
2022-09-05T05:07:23.637Z,1021.37
2022-09-05T05:08:23.709Z,1021.35
2022-09-05T05:09:23.535Z,1021.33
2022-09-05T05:14:07.698Z,1021.36
2022-09-05T05:17:55.284Z,1021.37
2022-09-05T05:17:56.599Z,1021.34
2022-09-05T05:17:57.987Z,1021.34
2022-09-05T05:18:02.535Z,1021.41
2022-09-05T05:18:07.040Z,1021.40
2022-09-05T05:18:12.193Z,1021.43
2022-09-05T05:18:13.109Z,1021.40
2022-09-05T05:18:39.797Z,1021.41
2022-09-05T05:19:23.727Z,1021.42
2022-09-05T05:20:42.703Z,1021.41
2022-09-05T05:21:23.539Z,1021.42
2022-09-05T05:22:23.543Z,1021.46
2022-09-05T05:23:23.542Z,1021.45
2022-09-05T05:24:23.545Z,1021.48
2022-09-05T05:25:23.547Z,1021.50
2022-09-05T05:26:23.543Z,1021.52
2022-09-05T05:27:23.555Z,1021.49
2022-09-05T05:28:24.764Z,1021.56
2022-09-05T05:29:23.545Z,1021.53
2022-09-05T05:30:23.550Z,1021.53
2022-09-05T05:31:23.636Z,1021.50
2022-09-05T05:32:31.628Z,1021.52
2022-09-05T05:33:23.545Z,1021.57
2022-09-05T05:34:24.793Z,1021.54
2022-09-05T05:35:23.548Z,1021.59
2022-09-05T05:36:23.549Z,1021.58
2022-09-05T05:37:23.551Z,1021.57
2022-09-05T05:38:23.612Z,1021.60
2022-09-05T05:39:23.621Z,1021.61
2022-09-05T05:40:23.550Z,1021.61
2022-09-05T05:41:23.550Z,1021.54
2022-09-05T05:42:23.552Z,1021.59
2022-09-05T05:43:23.552Z,1021.58
2022-09-05T05:44:23.559Z,1021.59
2022-09-05T05:45:23.552Z,1021.58
2022-09-05T05:46:23.642Z,1021.58
2022-09-05T05:47:28.409Z,1021.58
2022-09-05T05:48:23.579Z,1021.57
2022-09-05T05:49:23.553Z,1021.59
2022-09-05T05:50:23.555Z,1021.58
2022-09-05T05:51:34.766Z,1021.57
2022-09-05T05:52:23.559Z,1021.62
2022-09-05T05:53:33.473Z,1021.59
2022-09-05T05:54:23.558Z,1021.61
2022-09-05T05:55:51.374Z,1021.65
2022-09-05T05:56:23.558Z,1021.64
2022-09-05T05:57:23.553Z,1021.61
2022-09-05T05:58:23.614Z,1021.59
2022-09-05T05:59:24.884Z,1021.59
2022-09-05T06:00:27.952Z,1021.55
2022-09-05T06:01:32.956Z,1021.55
2022-09-05T06:02:23.678Z,1021.57
2022-09-05T06:03:26.614Z,1021.61
2022-09-05T06:04:23.557Z,1021.60
2022-09-05T06:05:23.562Z,1021.56
2022-09-05T06:06:23.561Z,1021.57
2022-09-05T06:07:23.568Z,1021.59
2022-09-05T06:10:19.729Z,1021.64
2022-09-05T06:14:37.558Z,1021.59
2022-09-05T06:14:49.554Z,1021.62
2022-09-05T06:14:57.249Z,1021.61
2022-09-05T06:14:57.250Z,1021.61
2022-09-05T06:15:01.460Z,1021.59
2022-09-05T06:15:09.076Z,1021.63
2022-09-05T06:15:24.586Z,1021.59
2022-09-05T06:16:23.627Z,1021.61
2022-09-05T06:17:28.295Z,1021.61
2022-09-05T06:18:23.566Z,1021.66
2022-09-05T06:19:23.568Z,1021.68
2022-09-05T06:22:04.793Z,1021.67
2022-09-05T06:22:09.577Z,1021.68
2022-09-05T06:22:23.574Z,1021.71
2022-09-05T06:23:39.411Z,1021.68
2022-09-05T06:24:23.573Z,1021.69
2022-09-05T06:25:23.569Z,1021.62
2022-09-05T06:26:23.574Z,1021.64
2022-09-05T06:27:23.574Z,1021.62
2022-09-05T06:28:23.570Z,1021.66
2022-09-05T06:29:23.577Z,1021.62
2022-09-05T06:30:23.573Z,1021.63
2022-09-05T06:31:31.492Z,1021.60
2022-09-05T06:32:23.572Z,1021.63
2022-09-05T06:33:23.617Z,1021.63
2022-09-05T06:34:33.089Z,1021.69
2022-09-05T06:35:23.574Z,1021.69
2022-09-05T06:36:23.579Z,1021.70
2022-09-05T06:37:23.576Z,1021.70
2022-09-05T06:38:23.577Z,1021.72
2022-09-05T06:39:23.631Z,1021.72
2022-09-05T06:40:23.573Z,1021.71
2022-09-05T06:41:23.585Z,1021.74
2022-09-05T06:42:28.505Z,1021.77
2022-09-05T06:43:23.644Z,1021.75
2022-09-05T06:44:23.886Z,1021.77
2022-09-05T06:45:28.152Z,1021.82
2022-09-05T06:46:52.884Z,1021.85
2022-09-05T06:47:33.694Z,1021.86
2022-09-05T06:48:32.109Z,1021.85
2022-09-05T06:49:30.322Z,1021.86
2022-09-05T06:50:24.351Z,1021.84
2022-09-05T06:51:23.584Z,1021.89
2022-09-05T06:52:29.027Z,1021.95
2022-09-05T06:53:23.602Z,1021.97
2022-09-05T06:54:23.586Z,1021.93
2022-09-05T06:55:23.584Z,1021.97
2022-09-05T06:56:25.983Z,1022.00
2022-09-05T06:57:23.591Z,1021.99
2022-09-05T06:58:23.592Z,1022.06
2022-09-05T06:59:23.590Z,1022.00
2022-09-05T07:00:23.602Z,1022.06
2022-09-05T07:01:23.732Z,1022.04
2022-09-05T07:02:46.371Z,1022.05
2022-09-05T07:03:23.922Z,1022.04
2022-09-05T07:05:14.831Z,1022.05
2022-09-05T07:05:38.793Z,1022.06
2022-09-05T07:06:23.604Z,1022.14
2022-09-05T07:07:23.626Z,1022.07
2022-09-05T07:08:36.593Z,1022.14
2022-09-05T07:09:23.603Z,1022.20
2022-09-05T07:10:38.018Z,1022.19
2022-09-05T07:11:23.604Z,1022.20
2022-09-05T07:12:23.610Z,1022.18
2022-09-05T07:13:23.618Z,1022.20
2022-09-05T07:14:23.610Z,1022.25
2022-09-05T07:15:23.610Z,1022.20
2022-09-05T07:16:37.231Z,1022.23
2022-09-05T07:17:23.616Z,1022.26
2022-09-05T07:18:23.617Z,1022.29
2022-09-05T07:19:23.624Z,1022.31
2022-09-05T07:20:23.731Z,1022.30
2022-09-05T07:21:26.800Z,1022.34
2022-09-05T07:22:47.134Z,1022.36
2022-09-05T07:24:07.215Z,1022.41
2022-09-05T07:24:31.292Z,1022.37
2022-09-05T07:25:26.151Z,1022.36
2022-09-05T07:26:52.046Z,1022.40
2022-09-05T07:27:25.498Z,1022.40
2022-09-05T07:28:29.705Z,1022.41
2022-09-05T07:29:23.635Z,1022.39
2022-09-05T07:30:23.637Z,1022.45
2022-09-05T07:31:27.444Z,1022.42
2022-09-05T07:32:24.615Z,1022.43
2022-09-05T07:33:23.724Z,1022.45
2022-09-05T07:34:23.644Z,1022.45
2022-09-05T07:35:23.646Z,1022.47
2022-09-05T07:36:24.545Z,1022.51
2022-09-05T07:37:23.650Z,1022.54
2022-09-05T07:38:26.702Z,1022.53
2022-09-05T07:39:29.100Z,1022.52
2022-09-05T07:40:26.034Z,1022.51
2022-09-05T07:41:23.662Z,1022.52
2022-09-05T07:42:23.673Z,1022.55
2022-09-05T07:43:23.683Z,1022.59
2022-09-05T07:44:23.671Z,1022.56
2022-09-05T07:45:23.696Z,1022.54
2022-09-05T07:46:23.674Z,1022.56
2022-09-05T07:47:23.672Z,1022.62
2022-09-05T07:48:34.622Z,1022.71
2022-09-05T07:49:23.683Z,1023.32
2022-09-05T07:52:23.508Z,1024.74
2022-09-05T07:56:46.654Z,1023.52
2022-09-05T07:56:55.620Z,1024.58
2022-09-05T07:57:02.368Z,1022.60
2022-09-05T07:57:03.723Z,1022.54
2022-09-05T07:57:09.949Z,1022.72
2022-09-05T07:57:13.318Z,1022.65
2022-09-05T07:57:30.955Z,1022.60
2022-09-05T07:58:23.709Z,1022.60
2022-09-05T07:59:23.709Z,1022.58
2022-09-05T08:00:26.806Z,1022.58
2022-09-05T08:01:23.760Z,1022.54
2022-09-05T08:02:23.719Z,1022.56
2022-09-05T08:03:23.871Z,1022.61
2022-09-05T08:04:23.730Z,1022.62
2022-09-05T08:05:32.928Z,1022.68
2022-09-05T08:06:48.011Z,1022.67
2022-09-05T08:07:46.737Z,1022.73
2022-09-05T08:08:23.739Z,1022.68
2022-09-05T08:10:06.741Z,1022.75
2022-09-05T08:10:31.246Z,1022.76
2022-09-05T08:11:26.287Z,1022.89
2022-09-05T08:12:27.846Z,1023.22
2022-09-05T08:13:27.296Z,1023.67
2022-09-05T08:14:43.369Z,1024.33
2022-09-05T08:15:23.830Z,1025.05
2022-09-05T08:16:23.802Z,1026.11
2022-09-05T08:17:26.459Z,1027.49
2022-09-05T08:18:23.768Z,1028.71
2022-09-05T08:19:23.772Z,1030.25
2022-09-05T08:20:23.778Z,1031.18
2022-09-05T08:21:27.080Z,1031.63
2022-09-05T08:22:23.779Z,1032.14
2022-09-05T08:23:23.888Z,1031.43
2022-09-05T08:24:23.792Z,1029.78
2022-09-05T08:25:23.795Z,1028.17
2022-09-05T08:26:23.800Z,1028.47
2022-09-05T08:27:23.798Z,1029.18
2022-09-05T08:28:23.811Z,1030.37
2022-09-05T08:29:23.806Z,1029.95
2022-09-05T08:30:26.684Z,1027.88
2022-09-05T08:31:23.838Z,1026.69
2022-09-05T08:32:23.820Z,1025.79
2022-09-05T08:33:23.821Z,1025.69
2022-09-05T08:34:31.336Z,1025.40
2022-09-05T08:35:23.829Z,1024.03
2022-09-05T08:36:23.834Z,1022.68
2022-09-05T08:37:23.839Z,1022.58
2022-09-05T08:38:23.992Z,1022.60
2022-09-05T08:39:23.927Z,1022.58
2022-09-05T08:40:23.890Z,1022.49
2022-09-05T08:41:36.909Z,1022.49
2022-09-05T08:42:23.863Z,1022.48
2022-09-05T08:44:43.164Z,1022.93
2022-09-05T08:46:39.388Z,1024.59
2022-09-05T08:46:41.095Z,1025.00
2022-09-05T08:46:43.402Z,1024.55
2022-09-05T08:47:23.940Z,1024.92
2022-09-05T08:48:23.889Z,1024.85
2022-09-05T08:49:32.405Z,1024.54
2022-09-05T08:50:26.884Z,1023.71
2022-09-05T08:51:23.910Z,1022.87
2022-09-05T08:52:23.918Z,1023.83
2022-09-05T08:53:26.318Z,1024.26
2022-09-05T08:54:23.925Z,1023.54
2022-09-05T08:55:23.934Z,1023.54
2022-09-05T08:56:23.938Z,1023.44
2022-09-05T08:57:23.951Z,1023.67
2022-09-05T08:58:23.956Z,1023.27
2022-09-05T08:59:27.741Z,1023.23
2022-09-05T09:00:24.590Z,1023.77
2022-09-05T09:01:24.011Z,1023.80
2022-09-05T09:02:46.460Z,1023.43
2022-09-05T09:03:25.797Z,1023.21
2022-09-05T09:04:43.651Z,1023.05
2022-09-05T09:05:24.001Z,1022.97
2022-09-05T09:06:24.009Z,1022.71
2022-09-05T09:07:50.647Z,1022.53
2022-09-05T09:08:24.028Z,1022.58
2022-09-05T09:09:24.036Z,1022.59
2022-09-05T09:10:25.967Z,1022.45
2022-09-05T09:11:24.054Z,1022.47
2022-09-05T09:12:24.063Z,1022.68
2022-09-05T09:13:24.184Z,1022.76
2022-09-05T09:14:30.195Z,1022.73
2022-09-05T09:15:24.086Z,1022.75
2022-09-05T09:16:24.226Z,1022.65
2022-09-05T09:17:24.114Z,1022.73
2022-09-05T09:18:24.118Z,1022.88
2022-09-05T09:19:29.146Z,1022.51
2022-09-05T09:20:24.141Z,1022.64
2022-09-05T09:21:24.149Z,1022.54
2022-09-05T09:22:24.170Z,1022.69
2022-09-05T09:23:28.888Z,1022.81
2022-09-05T09:24:24.181Z,1022.98
2022-09-05T09:25:26.536Z,1023.05
2022-09-05T09:26:26.755Z,1022.97
2022-09-05T09:27:53.969Z,1023.02
2022-09-05T09:28:48.344Z,1023.06
2022-09-05T09:29:24.241Z,1023.01
2022-09-05T09:30:24.251Z,1023.07
2022-09-05T09:31:24.293Z,1022.98
2022-09-05T09:32:24.276Z,1023.07
2022-09-05T09:33:27.335Z,1023.18
2022-09-05T09:34:24.305Z,1023.15
2022-09-05T09:35:24.316Z,1023.16
2022-09-05T09:36:24.332Z,1023.25
2022-09-05T09:37:46.606Z,1023.34
2022-09-05T09:38:24.517Z,1023.29
2022-09-05T09:39:39.586Z,1023.29
2022-09-05T09:40:24.490Z,1023.23
2022-09-05T09:41:24.407Z,1023.11
2022-09-05T09:42:32.705Z,1022.93
2022-09-05T09:43:24.430Z,1022.64
2022-09-05T09:44:24.452Z,1022.89
2022-09-05T09:45:28.744Z,1022.91
2022-09-05T09:46:24.522Z,1022.99
2022-09-05T09:47:24.500Z,1023.17
2022-09-05T09:48:24.762Z,1023.29
2022-09-05T09:49:24.528Z,1023.20
2022-09-05T09:50:24.544Z,1023.21
2022-09-05T09:51:24.558Z,1023.19
2022-09-05T09:52:24.578Z,1023.28
2022-09-05T09:53:24.595Z,1023.34
2022-09-05T09:54:24.611Z,1023.29
2022-09-05T09:55:24.622Z,1023.11
2022-09-05T09:56:24.640Z,1023.08
2022-09-05T09:57:24.659Z,1023.13
2022-09-05T09:58:24.983Z,1023.27
2022-09-05T09:59:24.690Z,1023.39
2022-09-05T10:00:24.717Z,1023.41
2022-09-05T10:01:35.594Z,1023.29
2022-09-05T10:05:42.813Z,1023.31
2022-09-05T10:07:38.199Z,1023.34
2022-09-05T10:10:35.429Z,1023.31
2022-09-05T10:10:39.226Z,1023.25
2022-09-05T10:10:45.057Z,1023.34
2022-09-05T10:10:47.753Z,1023.26
2022-09-05T10:10:48.838Z,1023.23
2022-09-05T10:10:52.850Z,1023.34
2022-09-05T10:10:53.339Z,1023.29
2022-09-05T10:11:50.048Z,1023.27
2022-09-05T10:13:26.859Z,1023.28
2022-09-05T10:14:49.057Z,1023.26
2022-09-05T10:15:30.438Z,1023.27
2022-09-05T10:16:25.072Z,1023.31
2022-09-05T10:17:25.031Z,1023.37
2022-09-05T10:18:25.046Z,1023.36
2022-09-05T10:20:07.825Z,1023.37
2022-09-05T10:20:29.344Z,1023.28
2022-09-05T10:21:25.107Z,1023.38
2022-09-05T10:22:40.592Z,1023.29
2022-09-05T10:23:25.359Z,1023.41
2022-09-05T10:24:25.176Z,1023.41
2022-09-05T10:25:25.191Z,1023.40
2022-09-05T10:26:25.213Z,1023.43
2022-09-05T10:27:25.326Z,1023.39
2022-09-05T10:28:25.251Z,1023.42
2022-09-05T10:29:36.845Z,1023.34
2022-09-05T10:31:36.068Z,1023.34
2022-09-05T10:34:24.778Z,1023.46
2022-09-05T10:35:04.671Z,1023.50
2022-09-05T10:35:08.991Z,1023.49
2022-09-05T10:35:17.073Z,1023.46
2022-09-05T10:35:26.200Z,1023.55
2022-09-05T10:36:25.436Z,1023.51
2022-09-05T10:37:25.448Z,1023.54
2022-09-05T10:38:25.464Z,1023.61
2022-09-05T10:39:25.601Z,1023.66
2022-09-05T10:40:25.504Z,1023.67
2022-09-05T10:41:25.528Z,1023.61
2022-09-05T10:42:25.553Z,1023.58
2022-09-05T10:43:25.697Z,1023.45
2022-09-05T10:44:25.595Z,1023.46
2022-09-05T10:45:30.210Z,1023.40
2022-09-05T10:46:49.772Z,1023.42
2022-09-05T10:47:25.717Z,1023.34
2022-09-05T10:48:25.693Z,1023.28
2022-09-05T10:49:30.406Z,1023.27
2022-09-05T10:50:25.734Z,1023.21
2022-09-05T10:51:27.823Z,1023.13
2022-09-05T10:52:25.783Z,1023.07
2022-09-05T10:53:25.919Z,1023.06
2022-09-05T10:54:25.828Z,1023.09
2022-09-05T10:55:25.849Z,1023.08
2022-09-05T10:56:26.071Z,1023.04
2022-09-05T10:57:25.893Z,1023.02
2022-09-05T10:58:35.262Z,1023.06
2022-09-05T11:02:15.749Z,1022.94
2022-09-05T11:02:21.458Z,1022.88
2022-09-05T11:02:28.222Z,1022.83
2022-09-05T11:02:34.962Z,1022.68
2022-09-05T11:03:26.193Z,1022.62
2022-09-05T11:04:26.060Z,1022.57
2022-09-05T11:05:26.135Z,1022.48
2022-09-05T11:06:26.105Z,1022.40
2022-09-05T11:07:29.660Z,1022.35
2022-09-05T11:08:26.151Z,1022.32
2022-09-05T11:09:26.179Z,1022.44
2022-09-05T11:10:26.203Z,1022.47
2022-09-05T11:11:34.299Z,1022.50
2022-09-05T11:12:26.247Z,1022.53
2022-09-05T11:13:26.422Z,1022.51
2022-09-05T11:14:27.355Z,1021.46
2022-09-05T11:15:26.321Z,1021.26
2022-09-05T11:16:26.395Z,1022.28
2022-09-05T11:17:26.368Z,1022.32
2022-09-05T11:18:27.125Z,1022.34
2022-09-05T11:19:26.415Z,1022.26
2022-09-05T11:20:28.954Z,1022.29
2022-09-05T11:21:26.466Z,1022.28
2022-09-05T11:22:26.484Z,1022.28
2022-09-05T11:23:26.700Z,1022.23
2022-09-05T11:24:27.566Z,1022.26
2022-09-05T11:25:40.686Z,1022.23
2022-09-05T11:26:26.577Z,1022.13
2022-09-05T11:27:26.605Z,1022.11
2022-09-05T11:28:26.621Z,1021.99
2022-09-05T11:29:26.651Z,1022.00
2022-09-05T11:30:30.009Z,1022.13
2022-09-05T11:31:26.725Z,1021.15
2022-09-05T11:34:54.626Z,1021.06
2022-09-05T11:39:45.604Z,1021.85
2022-09-05T11:39:49.150Z,1021.09
2022-09-05T11:39:55.600Z,1021.10
2022-09-05T11:39:57.508Z,1021.08
2022-09-05T11:40:01.995Z,1021.11
2022-09-05T11:40:10.548Z,1021.28
2022-09-05T11:40:23.878Z,1021.12
2022-09-05T11:40:45.146Z,1021.13
2022-09-05T11:41:27.968Z,1021.16
2022-09-05T11:42:26.939Z,1021.65
2022-09-05T11:43:26.965Z,1021.89
2022-09-05T11:44:27.524Z,1021.88
2022-09-05T11:45:27.010Z,1021.78
2022-09-05T11:46:29.581Z,1021.25
2022-09-05T11:47:33.212Z,1021.06
2022-09-05T11:48:27.106Z,1021.06
2022-09-05T11:49:27.089Z,1021.28
2022-09-05T11:50:27.106Z,1021.69
2022-09-05T11:51:33.419Z,1021.32
2022-09-05T11:52:27.148Z,1021.07
2022-09-05T11:53:27.169Z,1021.06
2022-09-05T11:54:27.184Z,1021.05
2022-09-05T11:55:27.205Z,1021.04
2022-09-05T11:56:28.939Z,1021.11
2022-09-05T11:57:33.771Z,1021.61
2022-09-05T11:58:45.434Z,1021.57
2022-09-05T11:59:33.431Z,1021.58
2022-09-05T12:00:31.990Z,1021.49
2022-09-05T12:01:41.227Z,1021.03
2022-09-05T12:02:27.375Z,1021.03
2022-09-05T12:03:57.134Z,1021.03
2022-09-05T12:04:27.365Z,1021.03
2022-09-05T12:05:49.690Z,1021.01
2022-09-05T12:06:27.459Z,1020.98
2022-09-05T12:07:31.851Z,1020.95